sensor_id;sensor_type;location;lat;lon;timestamp;P1;durP1;ratioP1;P2;durP2;ratioP2
15573;SDS011;7888;46.748;8.102;2022-08-05T00:01:18;1.88;;;1.42;;
15573;SDS011;7888;46.748;8.102;2022-08-05T00:03:46;1.80;;;1.45;;
15573;SDS011;7888;46.748;8.102;2022-08-05T00:06:13;2.10;;;1.55;;
15573;SDS011;7888;46.748;8.102;2022-08-05T00:08:40;3.28;;;1.50;;
15573;SDS011;7888;46.748;8.102;2022-08-05T00:11:11;2.85;;;1.60;;
15573;SDS011;7888;46.748;8.102;2022-08-05T00:13:40;2.47;;;1.35;;
15573;SDS011;7888;46.748;8.102;2022-08-05T00:16:08;2.22;;;1.67;;
15573;SDS011;7888;46.748;8.102;2022-08-05T00:18:36;1.45;;;1.30;;
15573;SDS011;7888;46.748;8.102;2022-08-05T00:21:03;1.45;;;1.35;;
15573;SDS011;7888;46.748;8.102;2022-08-05T00:23:30;1.50;;;1.40;;
15573;SDS011;7888;46.748;8.102;2022-08-05T00:25:56;1.77;;;1.60;;
15573;SDS011;7888;46.748;8.102;2022-08-05T00:28:22;1.80;;;1.70;;
15573;SDS011;7888;46.748;8.102;2022-08-05T00:30:48;2.10;;;1.80;;
15573;SDS011;7888;46.748;8.102;2022-08-05T00:33:15;1.70;;;1.60;;
15573;SDS011;7888;46.748;8.102;2022-08-05T00:35:41;1.92;;;1.60;;
15573;SDS011;7888;46.748;8.102;2022-08-05T00:38:06;2.85;;;1.85;;
15573;SDS011;7888;46.748;8.102;2022-08-05T00:40:32;1.67;;;1.58;;
15573;SDS011;7888;46.748;8.102;2022-08-05T00:42:59;1.60;;;1.50;;
15573;SDS011;7888;46.748;8.102;2022-08-05T00:45:27;1.65;;;1.48;;
15573;SDS011;7888;46.748;8.102;2022-08-05T00:47:54;2.00;;;1.73;;
15573;SDS011;7888;46.748;8.102;2022-08-05T00:50:19;1.80;;;1.60;;
15573;SDS011;7888;46.748;8.102;2022-08-05T00:52:45;2.08;;;1.70;;
15573;SDS011;7888;46.748;8.102;2022-08-05T00:55:11;1.90;;;1.65;;
15573;SDS011;7888;46.748;8.102;2022-08-05T00:57:37;2.25;;;1.83;;
15573;SDS011;7888;46.748;8.102;2022-08-05T01:00:03;1.70;;;1.58;;
15573;SDS011;7888;46.748;8.102;2022-08-05T01:02:31;2.05;;;1.73;;
15573;SDS011;7888;46.748;8.102;2022-08-05T01:04:57;1.90;;;1.80;;
15573;SDS011;7888;46.748;8.102;2022-08-05T01:07:22;2.00;;;1.70;;
15573;SDS011;7888;46.748;8.102;2022-08-05T01:09:48;2.13;;;1.80;;
15573;SDS011;7888;46.748;8.102;2022-08-05T01:12:14;2.90;;;1.80;;
15573;SDS011;7888;46.748;8.102;2022-08-05T01:14:55;1.83;;;1.70;;
15573;SDS011;7888;46.748;8.102;2022-08-05T01:31:40;1.75;;;1.50;;
15573;SDS011;7888;46.748;8.102;2022-08-05T01:37:18;2.38;;;1.38;;
15573;SDS011;7888;46.748;8.102;2022-08-05T01:39:54;2.08;;;1.50;;
15573;SDS011;7888;46.748;8.102;2022-08-05T01:42:22;1.55;;;1.30;;
15573;SDS011;7888;46.748;8.102;2022-08-05T01:44:54;1.55;;;1.45;;
15573;SDS011;7888;46.748;8.102;2022-08-05T01:47:25;2.35;;;1.50;;
15573;SDS011;7888;46.748;8.102;2022-08-05T01:49:55;2.80;;;1.50;;
15573;SDS011;7888;46.748;8.102;2022-08-05T01:52:24;1.73;;;1.33;;
15573;SDS011;7888;46.748;8.102;2022-08-05T01:54:54;1.60;;;1.45;;
15573;SDS011;7888;46.748;8.102;2022-08-05T01:57:28;1.75;;;1.40;;
15573;SDS011;7888;46.748;8.102;2022-08-05T02:00:01;2.42;;;1.63;;
15573;SDS011;7888;46.748;8.102;2022-08-05T02:02:30;1.85;;;1.75;;
15573;SDS011;7888;46.748;8.102;2022-08-05T02:05:03;1.75;;;1.60;;
15573;SDS011;7888;46.748;8.102;2022-08-05T02:07:33;1.55;;;1.30;;
15573;SDS011;7888;46.748;8.102;2022-08-05T02:10:01;1.35;;;1.25;;
15573;SDS011;7888;46.748;8.102;2022-08-05T02:15:27;1.85;;;1.30;;
15573;SDS011;7888;46.748;8.102;2022-08-05T02:18:17;1.55;;;1.10;;
15573;SDS011;7888;46.748;8.102;2022-08-05T02:20:52;1.35;;;1.13;;
15573;SDS011;7888;46.748;8.102;2022-08-05T02:23:28;4.03;;;1.35;;
15573;SDS011;7888;46.748;8.102;2022-08-05T02:26:00;1.30;;;1.20;;
15573;SDS011;7888;46.748;8.102;2022-08-05T02:28:30;1.40;;;1.30;;
15573;SDS011;7888;46.748;8.102;2022-08-05T02:31:08;1.60;;;1.50;;
15573;SDS011;7888;46.748;8.102;2022-08-05T02:34:07;1.38;;;1.20;;
15573;SDS011;7888;46.748;8.102;2022-08-05T02:36:37;1.30;;;1.20;;
15573;SDS011;7888;46.748;8.102;2022-08-05T02:39:07;2.58;;;1.27;;
15573;SDS011;7888;46.748;8.102;2022-08-05T02:41:35;1.30;;;1.20;;
15573;SDS011;7888;46.748;8.102;2022-08-05T02:44:06;1.52;;;1.42;;
15573;SDS011;7888;46.748;8.102;2022-08-05T02:46:35;1.20;;;1.10;;
15573;SDS011;7888;46.748;8.102;2022-08-05T02:49:03;1.50;;;1.40;;
15573;SDS011;7888;46.748;8.102;2022-08-05T02:51:31;1.77;;;1.52;;
15573;SDS011;7888;46.748;8.102;2022-08-05T02:54:02;1.30;;;1.20;;
15573;SDS011;7888;46.748;8.102;2022-08-05T02:56:31;1.17;;;1.08;;
15573;SDS011;7888;46.748;8.102;2022-08-05T02:58:58;1.35;;;1.25;;
15573;SDS011;7888;46.748;8.102;2022-08-05T03:01:26;1.30;;;1.20;;
15573;SDS011;7888;46.748;8.102;2022-08-05T03:03:53;1.35;;;1.25;;
15573;SDS011;7888;46.748;8.102;2022-08-05T03:06:25;1.88;;;1.23;;
15573;SDS011;7888;46.748;8.102;2022-08-05T03:08:52;1.65;;;1.33;;
15573;SDS011;7888;46.748;8.102;2022-08-05T03:11:20;1.00;;;1.00;;
15573;SDS011;7888;46.748;8.102;2022-08-05T03:13:49;1.80;;;1.10;;
15573;SDS011;7888;46.748;8.102;2022-08-05T03:16:16;1.08;;;1.00;;
15573;SDS011;7888;46.748;8.102;2022-08-05T03:18:43;0.93;;;0.90;;
15573;SDS011;7888;46.748;8.102;2022-08-05T03:21:09;1.00;;;1.00;;
15573;SDS011;7888;46.748;8.102;2022-08-05T03:23:35;0.90;;;0.90;;
15573;SDS011;7888;46.748;8.102;2022-08-05T03:26:05;1.10;;;1.10;;
15573;SDS011;7888;46.748;8.102;2022-08-05T03:28:31;1.27;;;1.00;;
15573;SDS011;7888;46.748;8.102;2022-08-05T03:30:58;1.17;;;1.10;;
15573;SDS011;7888;46.748;8.102;2022-08-05T03:33:27;1.42;;;1.30;;
15573;SDS011;7888;46.748;8.102;2022-08-05T03:35:54;0.93;;;0.93;;
15573;SDS011;7888;46.748;8.102;2022-08-05T03:38:23;1.17;;;1.10;;
15573;SDS011;7888;46.748;8.102;2022-08-05T03:40:50;1.35;;;0.90;;
15573;SDS011;7888;46.748;8.102;2022-08-05T03:43:17;1.20;;;1.08;;
15573;SDS011;7888;46.748;8.102;2022-08-05T03:45:44;1.55;;;1.45;;
15573;SDS011;7888;46.748;8.102;2022-08-05T03:48:11;1.50;;;1.40;;
15573;SDS011;7888;46.748;8.102;2022-08-05T03:56:32;1.40;;;1.10;;
15573;SDS011;7888;46.748;8.102;2022-08-05T03:59:08;2.15;;;1.02;;
15573;SDS011;7888;46.748;8.102;2022-08-05T04:01:46;1.15;;;1.02;;
15573;SDS011;7888;46.748;8.102;2022-08-05T04:04:14;1.17;;;1.08;;
15573;SDS011;7888;46.748;8.102;2022-08-05T04:06:43;1.80;;;0.93;;
15573;SDS011;7888;46.748;8.102;2022-08-05T04:09:10;1.00;;;0.90;;
15573;SDS011;7888;46.748;8.102;2022-08-05T04:11:38;1.08;;;1.05;;
15573;SDS011;7888;46.748;8.102;2022-08-05T04:14:04;1.33;;;1.23;;
15573;SDS011;7888;46.748;8.102;2022-08-05T04:16:33;1.30;;;1.20;;
15573;SDS011;7888;46.748;8.102;2022-08-05T04:19:00;1.95;;;1.30;;
15573;SDS011;7888;46.748;8.102;2022-08-05T04:21:27;1.20;;;1.10;;
15573;SDS011;7888;46.748;8.102;2022-08-05T04:23:53;2.90;;;1.20;;
15573;SDS011;7888;46.748;8.102;2022-08-05T04:26:19;1.65;;;1.17;;
15573;SDS011;7888;46.748;8.102;2022-08-05T04:28:45;1.77;;;1.20;;
15573;SDS011;7888;46.748;8.102;2022-08-05T04:31:11;1.23;;;1.17;;
15573;SDS011;7888;46.748;8.102;2022-08-05T04:33:37;1.90;;;1.00;;
15573;SDS011;7888;46.748;8.102;2022-08-05T04:36:03;1.13;;;1.10;;
15573;SDS011;7888;46.748;8.102;2022-08-05T04:38:29;0.93;;;0.93;;
15573;SDS011;7888;46.748;8.102;2022-08-05T04:40:54;0.80;;;0.80;;
15573;SDS011;7888;46.748;8.102;2022-08-05T04:43:20;1.10;;;1.00;;
15573;SDS011;7888;46.748;8.102;2022-08-05T04:45:46;1.33;;;1.20;;
15573;SDS011;7888;46.748;8.102;2022-08-05T04:48:13;1.23;;;1.17;;
15573;SDS011;7888;46.748;8.102;2022-08-05T04:50:40;1.30;;;1.20;;
15573;SDS011;7888;46.748;8.102;2022-08-05T04:53:11;3.00;;;0.90;;
15573;SDS011;7888;46.748;8.102;2022-08-05T04:55:40;1.80;;;1.33;;
15573;SDS011;7888;46.748;8.102;2022-08-05T04:58:08;1.33;;;1.00;;
15573;SDS011;7888;46.748;8.102;2022-08-05T05:00:37;0.85;;;0.85;;
15573;SDS011;7888;46.748;8.102;2022-08-05T05:03:04;1.90;;;1.23;;
15573;SDS011;7888;46.748;8.102;2022-08-05T05:05:32;0.90;;;0.90;;
15573;SDS011;7888;46.748;8.102;2022-08-05T05:08:06;1.10;;;1.10;;
15573;SDS011;7888;46.748;8.102;2022-08-05T05:10:38;2.33;;;1.40;;
15573;SDS011;7888;46.748;8.102;2022-08-05T05:13:10;2.63;;;1.30;;
15573;SDS011;7888;46.748;8.102;2022-08-05T05:15:41;2.05;;;1.60;;
15573;SDS011;7888;46.748;8.102;2022-08-05T05:18:13;2.25;;;1.38;;
15573;SDS011;7888;46.748;8.102;2022-08-05T05:20:43;1.70;;;1.55;;
15573;SDS011;7888;46.748;8.102;2022-08-05T05:23:11;1.20;;;1.20;;
15573;SDS011;7888;46.748;8.102;2022-08-05T05:25:41;2.25;;;1.15;;
15573;SDS011;7888;46.748;8.102;2022-08-05T05:28:09;1.10;;;1.00;;
15573;SDS011;7888;46.748;8.102;2022-08-05T05:30:36;0.85;;;0.80;;
15573;SDS011;7888;46.748;8.102;2022-08-05T05:33:04;1.20;;;1.10;;
15573;SDS011;7888;46.748;8.102;2022-08-05T05:35:32;1.02;;;0.95;;
15573;SDS011;7888;46.748;8.102;2022-08-05T05:37:59;1.13;;;1.02;;
15573;SDS011;7888;46.748;8.102;2022-08-05T05:40:27;1.55;;;1.20;;
15573;SDS011;7888;46.748;8.102;2022-08-05T05:42:54;1.33;;;1.23;;
15573;SDS011;7888;46.748;8.102;2022-08-05T05:45:21;2.85;;;1.10;;
15573;SDS011;7888;46.748;8.102;2022-08-05T05:47:47;1.17;;;1.00;;
15573;SDS011;7888;46.748;8.102;2022-08-05T05:50:14;1.27;;;1.10;;
15573;SDS011;7888;46.748;8.102;2022-08-05T05:52:42;2.00;;;1.10;;
15573;SDS011;7888;46.748;8.102;2022-08-05T05:55:09;2.30;;;1.23;;
15573;SDS011;7888;46.748;8.102;2022-08-05T05:57:38;0.90;;;0.85;;
15573;SDS011;7888;46.748;8.102;2022-08-05T06:00:09;1.40;;;1.30;;
15573;SDS011;7888;46.748;8.102;2022-08-05T06:02:41;2.92;;;1.48;;
15573;SDS011;7888;46.748;8.102;2022-08-05T06:05:10;2.40;;;1.38;;
15573;SDS011;7888;46.748;8.102;2022-08-05T06:07:38;2.90;;;1.27;;
15573;SDS011;7888;46.748;8.102;2022-08-05T06:10:05;1.30;;;1.20;;
15573;SDS011;7888;46.748;8.102;2022-08-05T06:12:34;3.97;;;1.10;;
15573;SDS011;7888;46.748;8.102;2022-08-05T06:15:01;1.67;;;1.23;;
15573;SDS011;7888;46.748;8.102;2022-08-05T06:17:30;1.15;;;1.15;;
15573;SDS011;7888;46.748;8.102;2022-08-05T06:19:56;1.30;;;1.17;;
15573;SDS011;7888;46.748;8.102;2022-08-05T06:22:23;0.98;;;0.98;;
15573;SDS011;7888;46.748;8.102;2022-08-05T06:24:57;2.03;;;1.20;;
15573;SDS011;7888;46.748;8.102;2022-08-05T06:27:23;1.40;;;1.30;;
15573;SDS011;7888;46.748;8.102;2022-08-05T06:29:50;1.20;;;1.10;;
15573;SDS011;7888;46.748;8.102;2022-08-05T06:32:16;1.30;;;1.20;;
15573;SDS011;7888;46.748;8.102;2022-08-05T06:34:42;1.30;;;1.20;;
15573;SDS011;7888;46.748;8.102;2022-08-05T06:37:08;2.05;;;1.17;;
15573;SDS011;7888;46.748;8.102;2022-08-05T06:39:34;1.73;;;0.95;;
15573;SDS011;7888;46.748;8.102;2022-08-05T06:42:03;0.88;;;0.85;;
15573;SDS011;7888;46.748;8.102;2022-08-05T06:44:29;1.38;;;1.27;;
15573;SDS011;7888;46.748;8.102;2022-08-05T06:46:55;1.40;;;0.98;;
15573;SDS011;7888;46.748;8.102;2022-08-05T06:49:21;1.40;;;1.30;;
15573;SDS011;7888;46.748;8.102;2022-08-05T06:51:48;1.25;;;1.15;;
15573;SDS011;7888;46.748;8.102;2022-08-05T06:54:14;0.90;;;0.90;;
15573;SDS011;7888;46.748;8.102;2022-08-05T06:56:40;2.00;;;1.20;;
15573;SDS011;7888;46.748;8.102;2022-08-05T06:59:06;1.48;;;1.02;;
15573;SDS011;7888;46.748;8.102;2022-08-05T07:01:32;1.00;;;1.00;;
15573;SDS011;7888;46.748;8.102;2022-08-05T07:03:58;1.38;;;1.27;;
15573;SDS011;7888;46.748;8.102;2022-08-05T07:06:25;1.20;;;1.00;;
15573;SDS011;7888;46.748;8.102;2022-08-05T07:08:51;2.08;;;1.20;;
15573;SDS011;7888;46.748;8.102;2022-08-05T07:11:17;1.33;;;1.00;;
15573;SDS011;7888;46.748;8.102;2022-08-05T07:13:44;2.05;;;1.10;;
15573;SDS011;7888;46.748;8.102;2022-08-05T07:16:29;1.17;;;1.08;;
15573;SDS011;7888;46.748;8.102;2022-08-05T07:19:13;1.42;;;0.98;;
15573;SDS011;7888;46.748;8.102;2022-08-05T07:21:44;1.63;;;1.00;;
15573;SDS011;7888;46.748;8.102;2022-08-05T07:24:14;1.00;;;1.00;;
15573;SDS011;7888;46.748;8.102;2022-08-05T07:26:41;1.13;;;1.02;;
15573;SDS011;7888;46.748;8.102;2022-08-05T07:29:09;0.95;;;0.95;;
15573;SDS011;7888;46.748;8.102;2022-08-05T07:31:35;1.23;;;1.13;;
15573;SDS011;7888;46.748;8.102;2022-08-05T07:34:02;2.17;;;1.40;;
15573;SDS011;7888;46.748;8.102;2022-08-05T07:36:29;1.45;;;1.08;;
15573;SDS011;7888;46.748;8.102;2022-08-05T07:38:57;2.97;;;1.10;;
15573;SDS011;7888;46.748;8.102;2022-08-05T07:41:25;1.17;;;1.08;;
15573;SDS011;7888;46.748;8.102;2022-08-05T07:43:52;0.98;;;0.95;;
15573;SDS011;7888;46.748;8.102;2022-08-05T07:46:19;1.20;;;1.10;;
15573;SDS011;7888;46.748;8.102;2022-08-05T07:48:45;2.05;;;1.30;;
15573;SDS011;7888;46.748;8.102;2022-08-05T07:51:11;1.23;;;1.13;;
15573;SDS011;7888;46.748;8.102;2022-08-05T07:53:39;1.15;;;1.05;;
15573;SDS011;7888;46.748;8.102;2022-08-05T07:56:06;1.38;;;1.27;;
15573;SDS011;7888;46.748;8.102;2022-08-05T07:58:32;1.00;;;1.00;;
15573;SDS011;7888;46.748;8.102;2022-08-05T08:00:58;1.20;;;1.10;;
15573;SDS011;7888;46.748;8.102;2022-08-05T08:03:24;1.45;;;1.10;;
15573;SDS011;7888;46.748;8.102;2022-08-05T08:05:49;1.45;;;1.00;;
15573;SDS011;7888;46.748;8.102;2022-08-05T08:08:16;1.10;;;1.00;;
15573;SDS011;7888;46.748;8.102;2022-08-05T08:10:43;1.42;;;1.00;;
15573;SDS011;7888;46.748;8.102;2022-08-05T08:13:09;1.10;;;1.00;;
15573;SDS011;7888;46.748;8.102;2022-08-05T08:15:35;2.35;;;1.33;;
15573;SDS011;7888;46.748;8.102;2022-08-05T08:18:01;1.67;;;1.13;;
15573;SDS011;7888;46.748;8.102;2022-08-05T12:11:25;0.88;;;0.88;;
15573;SDS011;7888;46.748;8.102;2022-08-05T12:13:58;0.90;;;0.90;;
15573;SDS011;7888;46.748;8.102;2022-08-05T12:16:36;1.25;;;1.15;;
15573;SDS011;7888;46.748;8.102;2022-08-05T12:19:05;1.30;;;1.20;;
15573;SDS011;7888;46.748;8.102;2022-08-05T12:21:35;2.67;;;0.93;;
15573;SDS011;7888;46.748;8.102;2022-08-05T12:24:16;1.13;;;1.10;;
15573;SDS011;7888;46.748;8.102;2022-08-05T12:26:52;1.30;;;1.20;;
15573;SDS011;7888;46.748;8.102;2022-08-05T12:29:19;1.10;;;1.08;;
15573;SDS011;7888;46.748;8.102;2022-08-05T12:31:51;2.53;;;1.40;;
15573;SDS011;7888;46.748;8.102;2022-08-05T12:34:23;1.20;;;1.20;;
15573;SDS011;7888;46.748;8.102;2022-08-05T12:36:53;1.35;;;1.25;;
15573;SDS011;7888;46.748;8.102;2022-08-05T12:39:23;1.58;;;1.45;;
15573;SDS011;7888;46.748;8.102;2022-08-05T12:41:55;1.38;;;1.27;;
15573;SDS011;7888;46.748;8.102;2022-08-05T12:44:24;1.30;;;1.25;;
15573;SDS011;7888;46.748;8.102;2022-08-05T12:46:51;2.38;;;1.52;;
15573;SDS011;7888;46.748;8.102;2022-08-05T12:49:19;1.35;;;1.25;;
15573;SDS011;7888;46.748;8.102;2022-08-05T12:54:26;1.27;;;1.27;;
15573;SDS011;7888;46.748;8.102;2022-08-05T12:56:58;1.60;;;1.35;;
15573;SDS011;7888;46.748;8.102;2022-08-05T12:59:28;1.50;;;1.40;;
15573;SDS011;7888;46.748;8.102;2022-08-05T13:02:02;1.42;;;1.33;;
15573;SDS011;7888;46.748;8.102;2022-08-05T13:04:34;1.98;;;1.25;;
15573;SDS011;7888;46.748;8.102;2022-08-05T13:07:04;1.40;;;1.30;;
15573;SDS011;7888;46.748;8.102;2022-08-05T13:09:37;0.93;;;0.88;;
15573;SDS011;7888;46.748;8.102;2022-08-05T13:12:08;1.15;;;1.05;;
15573;SDS011;7888;46.748;8.102;2022-08-05T13:14:41;0.93;;;0.90;;
15573;SDS011;7888;46.748;8.102;2022-08-05T13:17:21;1.00;;;1.00;;
15573;SDS011;7888;46.748;8.102;2022-08-05T13:22:51;1.90;;;1.40;;
15573;SDS011;7888;46.748;8.102;2022-08-05T13:25:18;1.55;;;1.20;;
15573;SDS011;7888;46.748;8.102;2022-08-05T13:27:49;1.50;;;1.35;;
15573;SDS011;7888;46.748;8.102;2022-08-05T13:30:18;1.77;;;1.30;;
15573;SDS011;7888;46.748;8.102;2022-08-05T13:32:48;1.25;;;1.10;;
15573;SDS011;7888;46.748;8.102;2022-08-05T13:35:14;1.55;;;1.45;;
15573;SDS011;7888;46.748;8.102;2022-08-05T13:37:42;1.25;;;1.25;;
15573;SDS011;7888;46.748;8.102;2022-08-05T13:40:09;1.50;;;1.38;;
15573;SDS011;7888;46.748;8.102;2022-08-05T13:42:36;2.53;;;1.30;;
15573;SDS011;7888;46.748;8.102;2022-08-05T13:45:03;1.83;;;1.63;;
15573;SDS011;7888;46.748;8.102;2022-08-05T13:47:31;2.13;;;1.42;;
15573;SDS011;7888;46.748;8.102;2022-08-05T13:50:04;2.58;;;1.40;;
15573;SDS011;7888;46.748;8.102;2022-08-05T13:52:31;3.15;;;1.50;;
15573;SDS011;7888;46.748;8.102;2022-08-05T13:54:57;1.60;;;1.50;;
15573;SDS011;7888;46.748;8.102;2022-08-05T13:57:23;1.98;;;1.33;;
15573;SDS011;7888;46.748;8.102;2022-08-05T13:59:49;1.35;;;1.25;;
15573;SDS011;7888;46.748;8.102;2022-08-05T14:02:16;2.05;;;1.85;;
15573;SDS011;7888;46.748;8.102;2022-08-05T14:04:43;1.70;;;1.60;;
15573;SDS011;7888;46.748;8.102;2022-08-05T14:07:30;1.45;;;1.35;;
15573;SDS011;7888;46.748;8.102;2022-08-05T14:09:57;2.00;;;1.90;;
15573;SDS011;7888;46.748;8.102;2022-08-05T14:12:23;1.50;;;1.40;;
15573;SDS011;7888;46.748;8.102;2022-08-05T14:14:50;1.60;;;1.50;;
15573;SDS011;7888;46.748;8.102;2022-08-05T14:17:16;1.80;;;1.70;;
15573;SDS011;7888;46.748;8.102;2022-08-05T14:19:43;1.67;;;1.58;;
15573;SDS011;7888;46.748;8.102;2022-08-05T14:22:09;1.75;;;1.60;;
15573;SDS011;7888;46.748;8.102;2022-08-05T14:24:35;1.67;;;1.58;;
15573;SDS011;7888;46.748;8.102;2022-08-05T14:27:02;1.63;;;1.52;;
15573;SDS011;7888;46.748;8.102;2022-08-05T14:29:28;1.30;;;1.20;;
15573;SDS011;7888;46.748;8.102;2022-08-05T14:31:54;1.90;;;1.40;;
15573;SDS011;7888;46.748;8.102;2022-08-05T14:34:20;1.50;;;1.40;;
15573;SDS011;7888;46.748;8.102;2022-08-05T14:36:46;1.88;;;1.63;;
15573;SDS011;7888;46.748;8.102;2022-08-05T14:39:12;1.58;;;1.48;;
15573;SDS011;7888;46.748;8.102;2022-08-05T14:41:38;1.65;;;1.55;;
15573;SDS011;7888;46.748;8.102;2022-08-05T14:44:04;1.60;;;1.50;;
15573;SDS011;7888;46.748;8.102;2022-08-05T14:46:30;3.25;;;1.77;;
15573;SDS011;7888;46.748;8.102;2022-08-05T14:48:57;1.75;;;1.30;;
15573;SDS011;7888;46.748;8.102;2022-08-05T14:51:25;1.65;;;1.55;;
15573;SDS011;7888;46.748;8.102;2022-08-05T14:53:52;1.73;;;1.63;;
15573;SDS011;7888;46.748;8.102;2022-08-05T14:56:18;1.50;;;1.40;;
15573;SDS011;7888;46.748;8.102;2022-08-05T14:58:44;1.42;;;1.33;;
15573;SDS011;7888;46.748;8.102;2022-08-05T15:01:10;1.58;;;1.48;;
15573;SDS011;7888;46.748;8.102;2022-08-05T15:03:36;1.63;;;1.52;;
15573;SDS011;7888;46.748;8.102;2022-08-05T15:06:02;1.50;;;1.40;;
15573;SDS011;7888;46.748;8.102;2022-08-05T15:08:28;1.55;;;1.45;;
15573;SDS011;7888;46.748;8.102;2022-08-05T15:10:54;1.65;;;1.38;;
15573;SDS011;7888;46.748;8.102;2022-08-05T15:13:20;1.52;;;1.40;;
15573;SDS011;7888;46.748;8.102;2022-08-05T15:15:47;1.50;;;1.40;;
15573;SDS011;7888;46.748;8.102;2022-08-05T15:18:13;1.60;;;1.50;;
15573;SDS011;7888;46.748;8.102;2022-08-05T15:20:39;1.60;;;1.25;;
15573;SDS011;7888;46.748;8.102;2022-08-05T15:23:05;1.73;;;1.63;;
15573;SDS011;7888;46.748;8.102;2022-08-05T15:25:34;1.55;;;1.45;;
15573;SDS011;7888;46.748;8.102;2022-08-05T15:28:01;1.45;;;1.10;;
15573;SDS011;7888;46.748;8.102;2022-08-05T15:30:27;2.20;;;1.30;;
15573;SDS011;7888;46.748;8.102;2022-08-05T15:32:56;1.48;;;1.38;;
15573;SDS011;7888;46.748;8.102;2022-08-05T15:35:22;1.67;;;1.58;;
15573;SDS011;7888;46.748;8.102;2022-08-05T15:37:48;3.78;;;1.52;;
15573;SDS011;7888;46.748;8.102;2022-08-05T15:40:14;1.80;;;1.60;;
15573;SDS011;7888;46.748;8.102;2022-08-05T15:42:40;1.67;;;1.58;;
15573;SDS011;7888;46.748;8.102;2022-08-05T15:45:06;2.80;;;1.40;;
15573;SDS011;7888;46.748;8.102;2022-08-05T15:47:35;2.85;;;1.30;;
15573;SDS011;7888;46.748;8.102;2022-08-05T15:50:02;1.40;;;1.30;;
15573;SDS011;7888;46.748;8.102;2022-08-05T15:52:30;1.40;;;1.30;;
15573;SDS011;7888;46.748;8.102;2022-08-05T15:55:01;1.50;;;1.40;;
15573;SDS011;7888;46.748;8.102;2022-08-05T15:57:31;1.80;;;1.58;;
15573;SDS011;7888;46.748;8.102;2022-08-05T15:59:57;2.53;;;1.35;;
15573;SDS011;7888;46.748;8.102;2022-08-05T16:02:23;1.65;;;1.55;;
15573;SDS011;7888;46.748;8.102;2022-08-05T16:04:49;1.73;;;1.60;;
15573;SDS011;7888;46.748;8.102;2022-08-05T16:07:16;1.55;;;1.45;;
15573;SDS011;7888;46.748;8.102;2022-08-05T16:09:45;1.50;;;1.40;;
15573;SDS011;7888;46.748;8.102;2022-08-05T16:12:12;2.05;;;1.40;;
15573;SDS011;7888;46.748;8.102;2022-08-05T16:14:40;1.52;;;1.42;;
15573;SDS011;7888;46.748;8.102;2022-08-05T16:17:06;1.88;;;1.38;;
15573;SDS011;7888;46.748;8.102;2022-08-05T16:19:33;1.60;;;1.50;;
15573;SDS011;7888;46.748;8.102;2022-08-05T16:21:58;2.55;;;1.35;;
15573;SDS011;7888;46.748;8.102;2022-08-05T16:24:25;1.50;;;1.40;;
15573;SDS011;7888;46.748;8.102;2022-08-05T16:26:52;1.50;;;1.40;;
15573;SDS011;7888;46.748;8.102;2022-08-05T16:29:21;1.42;;;1.33;;
15573;SDS011;7888;46.748;8.102;2022-08-05T16:31:48;1.83;;;1.40;;
15573;SDS011;7888;46.748;8.102;2022-08-05T16:34:14;1.58;;;1.48;;
15573;SDS011;7888;46.748;8.102;2022-08-05T16:36:42;1.75;;;1.60;;
15573;SDS011;7888;46.748;8.102;2022-08-05T16:39:08;2.22;;;2.03;;
15573;SDS011;7888;46.748;8.102;2022-08-05T16:41:35;1.98;;;1.50;;
15573;SDS011;7888;46.748;8.102;2022-08-05T16:44:05;1.50;;;1.40;;
15573;SDS011;7888;46.748;8.102;2022-08-05T16:46:32;1.88;;;1.77;;
15573;SDS011;7888;46.748;8.102;2022-08-05T16:48:59;1.70;;;1.60;;
15573;SDS011;7888;46.748;8.102;2022-08-05T16:51:25;2.47;;;1.92;;
15573;SDS011;7888;46.748;8.102;2022-08-05T16:53:51;1.92;;;1.83;;
15573;SDS011;7888;46.748;8.102;2022-08-05T16:56:16;2.28;;;2.08;;
15573;SDS011;7888;46.748;8.102;2022-08-05T16:58:42;2.85;;;1.83;;
15573;SDS011;7888;46.748;8.102;2022-08-05T17:01:08;1.75;;;1.50;;
15573;SDS011;7888;46.748;8.102;2022-08-05T17:03:35;1.98;;;1.73;;
15573;SDS011;7888;46.748;8.102;2022-08-05T17:06:01;1.90;;;1.70;;
15573;SDS011;7888;46.748;8.102;2022-08-05T17:08:27;2.83;;;1.65;;
15573;SDS011;7888;46.748;8.102;2022-08-05T17:10:53;2.65;;;1.80;;
15573;SDS011;7888;46.748;8.102;2022-08-05T17:13:19;2.10;;;1.90;;
15573;SDS011;7888;46.748;8.102;2022-08-05T17:15:45;1.67;;;1.58;;
15573;SDS011;7888;46.748;8.102;2022-08-05T17:18:12;3.00;;;1.60;;
15573;SDS011;7888;46.748;8.102;2022-08-05T17:20:39;2.58;;;2.38;;
15573;SDS011;7888;46.748;8.102;2022-08-05T17:23:05;1.95;;;1.85;;
15573;SDS011;7888;46.748;8.102;2022-08-05T17:25:31;2.55;;;2.35;;
15573;SDS011;7888;46.748;8.102;2022-08-05T17:27:57;1.80;;;1.70;;
15573;SDS011;7888;46.748;8.102;2022-08-05T17:30:23;2.10;;;1.80;;
15573;SDS011;7888;46.748;8.102;2022-08-05T17:32:49;2.30;;;2.10;;
15573;SDS011;7888;46.748;8.102;2022-08-05T17:35:16;1.73;;;1.63;;
15573;SDS011;7888;46.748;8.102;2022-08-05T17:37:42;1.90;;;1.70;;
15573;SDS011;7888;46.748;8.102;2022-08-05T17:40:10;2.05;;;1.70;;
15573;SDS011;7888;46.748;8.102;2022-08-05T17:42:39;2.38;;;1.60;;
15573;SDS011;7888;46.748;8.102;2022-08-05T17:45:06;2.35;;;1.83;;
15573;SDS011;7888;46.748;8.102;2022-08-05T17:47:33;2.03;;;1.88;;
15573;SDS011;7888;46.748;8.102;2022-08-05T17:49:59;2.38;;;1.65;;
15573;SDS011;7888;46.748;8.102;2022-08-05T17:52:25;2.20;;;2.00;;
15573;SDS011;7888;46.748;8.102;2022-08-05T17:54:51;2.75;;;1.70;;
15573;SDS011;7888;46.748;8.102;2022-08-05T17:57:17;1.90;;;1.77;;
15573;SDS011;7888;46.748;8.102;2022-08-05T17:59:43;1.98;;;1.88;;
15573;SDS011;7888;46.748;8.102;2022-08-05T18:02:09;1.88;;;1.77;;
15573;SDS011;7888;46.748;8.102;2022-08-05T18:04:35;2.17;;;1.75;;
15573;SDS011;7888;46.748;8.102;2022-08-05T18:07:01;1.85;;;1.75;;
15573;SDS011;7888;46.748;8.102;2022-08-05T18:09:29;2.00;;;1.90;;
15573;SDS011;7888;46.748;8.102;2022-08-05T18:11:55;1.92;;;1.75;;
15573;SDS011;7888;46.748;8.102;2022-08-05T18:14:22;1.80;;;1.70;;
15573;SDS011;7888;46.748;8.102;2022-08-05T18:16:48;3.15;;;2.28;;
15573;SDS011;7888;46.748;8.102;2022-08-05T18:19:14;2.22;;;2.03;;
15573;SDS011;7888;46.748;8.102;2022-08-05T18:21:40;3.00;;;2.25;;
15573;SDS011;7888;46.748;8.102;2022-08-05T18:24:06;2.08;;;1.95;;
15573;SDS011;7888;46.748;8.102;2022-08-05T18:26:32;2.22;;;2.00;;
15573;SDS011;7888;46.748;8.102;2022-08-05T18:28:58;2.22;;;2.03;;
15573;SDS011;7888;46.748;8.102;2022-08-05T18:31:24;2.55;;;1.92;;
15573;SDS011;7888;46.748;8.102;2022-08-05T18:33:50;2.83;;;2.25;;
15573;SDS011;7888;46.748;8.102;2022-08-05T18:36:17;4.68;;;2.55;;
15573;SDS011;7888;46.748;8.102;2022-08-05T18:38:43;4.32;;;2.20;;
15573;SDS011;7888;46.748;8.102;2022-08-05T18:41:09;2.30;;;2.10;;
15573;SDS011;7888;46.748;8.102;2022-08-05T18:43:35;3.28;;;2.13;;
15573;SDS011;7888;46.748;8.102;2022-08-05T18:46:02;3.53;;;2.13;;
15573;SDS011;7888;46.748;8.102;2022-08-05T18:48:30;2.83;;;2.08;;
15573;SDS011;7888;46.748;8.102;2022-08-05T18:50:56;2.00;;;1.90;;
15573;SDS011;7888;46.748;8.102;2022-08-05T18:53:42;2.60;;;2.08;;
15573;SDS011;7888;46.748;8.102;2022-08-05T18:56:08;2.42;;;2.00;;
15573;SDS011;7888;46.748;8.102;2022-08-05T18:58:37;2.40;;;2.20;;
15573;SDS011;7888;46.748;8.102;2022-08-05T19:01:04;2.20;;;2.00;;
15573;SDS011;7888;46.748;8.102;2022-08-05T19:03:30;2.30;;;2.10;;
15573;SDS011;7888;46.748;8.102;2022-08-05T19:05:55;3.85;;;2.40;;
15573;SDS011;7888;46.748;8.102;2022-08-05T19:08:21;2.40;;;2.20;;
15573;SDS011;7888;46.748;8.102;2022-08-05T19:10:48;3.15;;;1.90;;
15573;SDS011;7888;46.748;8.102;2022-08-05T19:13:14;1.75;;;1.60;;
15573;SDS011;7888;46.748;8.102;2022-08-05T19:15:40;2.00;;;1.90;;
15573;SDS011;7888;46.748;8.102;2022-08-05T19:18:07;2.25;;;2.05;;
15573;SDS011;7888;46.748;8.102;2022-08-05T19:20:33;1.80;;;1.70;;
15573;SDS011;7888;46.748;8.102;2022-08-05T19:22:59;2.25;;;1.98;;
15573;SDS011;7888;46.748;8.102;2022-08-05T19:25:25;2.40;;;2.20;;
15573;SDS011;7888;46.748;8.102;2022-08-05T19:27:50;2.13;;;1.92;;